createdAt,value
2022-08-07T00:00:32.464Z,52.79
2022-08-07T00:02:44.580Z,52.06
2022-08-07T00:04:52.582Z,52.01
2022-08-07T00:07:05.111Z,52.78
2022-08-07T00:09:22.205Z,52.87
2022-08-07T00:11:33.155Z,53.46
2022-08-07T00:13:44.877Z,53.21
2022-08-07T00:15:53.928Z,53.85
2022-08-07T00:18:02.970Z,52.59
2022-08-07T00:20:15.630Z,52.63
2022-08-07T00:22:40.106Z,52.83
2022-08-07T00:24:50.086Z,54.25
2022-08-07T00:27:06.255Z,54.92
2022-08-07T00:29:15.404Z,53.62
2022-08-07T00:31:38.180Z,54.71
2022-08-07T00:33:49.477Z,53.30
2022-08-07T00:35:58.559Z,53.70
2022-08-07T00:38:10.606Z,52.82
2022-08-07T00:40:39.752Z,53.22
2022-08-07T00:42:50.270Z,55.07
2022-08-07T00:45:00.466Z,55.27
2022-08-07T00:47:16.158Z,55.60
2022-08-07T00:50:19.153Z,54.28
2022-08-07T00:52:08.942Z,55.52
2022-08-07T00:54:20.399Z,56.36
2022-08-07T00:56:34.026Z,55.23
2022-08-07T00:58:46.960Z,54.21
2022-08-07T01:00:57.494Z,54.91
2022-08-07T01:03:06.009Z,55.30
2022-08-07T01:05:18.854Z,55.18
2022-08-07T01:07:28.379Z,55.12
2022-08-07T01:10:04.387Z,54.61
2022-08-07T01:12:29.308Z,55.74
2022-08-07T01:14:37.981Z,57.13
2022-08-07T01:17:07.355Z,56.99
2022-08-07T01:19:21.838Z,57.05
2022-08-07T01:21:36.897Z,56.92
2022-08-07T01:23:46.836Z,57.96
2022-08-07T01:25:56.531Z,57.68
2022-08-07T01:28:05.986Z,57.72
2022-08-07T01:30:14.876Z,57.43
2022-08-07T01:32:28.031Z,59.68
2022-08-07T01:34:38.288Z,60.17
2022-08-07T01:36:57.954Z,59.73
2022-08-07T01:39:10.154Z,59.44
2022-08-07T01:41:26.271Z,58.75
2022-08-07T01:43:39.079Z,58.87
2022-08-07T01:45:48.607Z,60.48
2022-08-07T01:48:20.158Z,60.57
2022-08-07T01:50:32.744Z,59.32
2022-08-07T01:52:49.376Z,61.04
2022-08-07T01:55:04.739Z,61.62
2022-08-07T01:57:24.952Z,61.87
2022-08-07T01:59:44.041Z,62.03
2022-08-07T02:02:04.040Z,61.12
2022-08-07T02:04:18.911Z,61.93
2022-08-07T02:06:35.611Z,61.28
2022-08-07T02:08:54.329Z,61.99
2022-08-07T02:11:07.469Z,61.69
2022-08-07T02:13:20.187Z,61.92
2022-08-07T02:15:36.891Z,61.25
2022-08-07T02:17:49.503Z,61.61
2022-08-07T02:20:05.718Z,61.83
2022-08-07T02:22:20.179Z,61.65
2022-08-07T02:24:33.668Z,62.60
2022-08-07T02:26:43.206Z,62.40
2022-08-07T02:28:51.259Z,61.95
2022-08-07T02:31:00.408Z,61.99
2022-08-07T02:33:32.854Z,62.63
2022-08-07T02:36:29.408Z,63.30
2022-08-07T02:38:32.431Z,62.86
2022-08-07T02:40:46.516Z,63.45
2022-08-07T02:42:56.540Z,62.86
2022-08-07T02:45:57.429Z,62.56
2022-08-07T02:47:48.913Z,64.04
2022-08-07T02:50:00.210Z,64.55
2022-08-07T02:52:18.331Z,64.43
2022-08-07T02:54:33.558Z,65.03
2022-08-07T02:56:46.966Z,63.37
2022-08-07T02:58:57.363Z,64.58
2022-08-07T03:01:15.935Z,64.39
2022-08-07T03:03:50.062Z,63.29
2022-08-07T03:06:06.380Z,64.27
2022-08-07T03:08:29.349Z,63.86
2022-08-07T03:10:46.561Z,64.65
2022-08-07T03:13:03.020Z,64.31
2022-08-07T03:15:15.442Z,65.50
2022-08-07T03:17:54.045Z,64.44
2022-08-07T03:20:04.602Z,65.32
2022-08-07T03:22:18.921Z,65.64
2022-08-07T03:24:28.351Z,64.11
2022-08-07T03:26:50.887Z,64.64
2022-08-07T03:29:06.220Z,64.62
2022-08-07T03:31:24.775Z,65.37
2022-08-07T03:33:53.974Z,65.67
2022-08-07T03:36:02.475Z,65.91
2022-08-07T03:38:13.351Z,66.23
2022-08-07T03:40:27.396Z,67.30
2022-08-07T03:42:39.510Z,66.47
2022-08-07T03:44:57.865Z,65.26
2022-08-07T03:47:13.045Z,66.04
2022-08-07T03:49:24.915Z,66.34
2022-08-07T03:51:47.772Z,66.83
2022-08-07T03:54:35.335Z,66.53
2022-08-07T03:56:36.534Z,66.92
2022-08-07T03:59:09.353Z,67.51
2022-08-07T04:01:18.589Z,67.01
2022-08-07T04:03:29.479Z,67.83
2022-08-07T04:05:58.823Z,68.17
2022-08-07T04:08:08.980Z,67.54
2022-08-07T04:10:19.948Z,67.41
2022-08-07T04:12:29.473Z,66.21
2022-08-07T04:14:43.766Z,65.97
2022-08-07T04:16:59.008Z,65.20
2022-08-07T04:19:14.817Z,65.95
2022-08-07T04:21:31.809Z,65.31
2022-08-07T04:23:43.585Z,66.25
2022-08-07T04:26:11.109Z,65.75
2022-08-07T04:28:21.798Z,66.23
2022-08-07T04:30:39.375Z,66.49
2022-08-07T04:33:15.457Z,66.02
2022-08-07T04:35:25.942Z,65.04
2022-08-07T04:38:00.987Z,64.33
2022-08-07T04:40:06.012Z,63.41
2022-08-07T04:42:13.910Z,60.42
2022-08-07T04:44:22.417Z,58.19
2022-08-07T04:46:59.310Z,55.17
2022-08-07T04:49:24.641Z,50.25
2022-08-07T04:51:44.778Z,46.40
2022-08-07T04:54:01.592Z,44.82
2022-08-07T04:58:15.219Z,41.97
2022-08-07T04:59:17.155Z,39.43
2022-08-07T05:01:37.898Z,37.43
2022-08-07T05:04:06.469Z,36.10
2022-08-07T05:06:28.141Z,34.63
2022-08-07T05:08:59.185Z,34.11
2022-08-07T05:11:19.277Z,32.58
2022-08-07T05:14:55.447Z,31.12
2022-08-07T05:16:09.204Z,31.68
2022-08-07T05:18:23.516Z,30.66
2022-08-07T05:20:37.809Z,30.83
2022-08-07T05:22:52.871Z,30.94
2022-08-07T05:25:08.681Z,30.75
2022-08-07T05:28:16.059Z,30.69
2022-08-07T05:29:57.997Z,29.45
2022-08-07T05:32:08.123Z,29.63
2022-08-07T05:34:20.941Z,29.11
2022-08-07T05:36:36.103Z,31.19
2022-08-07T05:38:58.069Z,32.42
2022-08-07T05:41:16.711Z,30.99
2022-08-07T05:44:06.768Z,31.26
2022-08-07T05:45:59.925Z,31.72
2022-08-07T05:48:14.178Z,28.81
2022-08-07T05:50:29.200Z,29.11
2022-08-07T05:52:37.436Z,28.85
2022-08-07T05:54:55.401Z,28.52
2022-08-07T05:57:09.692Z,27.24
2022-08-07T05:59:21.076Z,28.82
2022-08-07T06:01:35.787Z,27.48
2022-08-07T06:03:57.211Z,28.79
2022-08-07T06:06:11.173Z,28.62
2022-08-07T06:08:30.957Z,26.85
2022-08-07T06:10:42.597Z,25.97
2022-08-07T06:12:52.072Z,24.99
2022-08-07T06:15:06.249Z,24.79
2022-08-07T06:17:15.870Z,23.43
2022-08-07T06:19:47.860Z,24.43
2022-08-07T06:22:15.027Z,23.34
2022-08-07T06:24:37.969Z,24.09
2022-08-07T06:26:53.048Z,24.78
2022-08-07T06:29:04.189Z,30.20
2022-08-07T06:31:14.408Z,27.54
2022-08-07T06:33:27.149Z,29.26
2022-08-07T06:35:48.139Z,34.59
2022-08-07T06:38:20.190Z,37.95
2022-08-07T06:40:34.514Z,36.27
2022-08-07T06:42:49.348Z,36.05
2022-08-07T06:45:12.655Z,37.78
2022-08-07T06:47:28.297Z,34.22
2022-08-07T06:49:58.649Z,39.76
2022-08-07T06:52:13.155Z,37.83
2022-08-07T06:55:32.147Z,35.37
2022-08-07T06:56:53.351Z,35.59
2022-08-07T07:00:13.058Z,39.17
2022-08-07T07:01:52.212Z,39.16
2022-08-07T07:04:08.264Z,40.37
2022-08-07T07:06:28.196Z,41.50
2022-08-07T07:08:39.837Z,41.17
2022-08-07T07:11:13.489Z,41.81
2022-08-07T07:13:58.327Z,42.56
2022-08-07T07:16:20.136Z,41.82
2022-08-07T07:18:47.839Z,39.89
2022-08-07T07:21:00.407Z,38.53
2022-08-07T07:24:09.488Z,36.58
2022-08-07T07:26:32.445Z,36.22
2022-08-07T07:28:42.787Z,35.91
2022-08-07T07:30:56.070Z,37.65
2022-08-07T07:33:11.715Z,39.65
2022-08-07T07:35:20.695Z,39.56
2022-08-07T07:37:47.216Z,38.82
2022-08-07T07:40:14.875Z,35.14
2022-08-07T07:42:32.722Z,34.99
2022-08-07T07:44:45.357Z,35.87
2022-08-07T07:47:14.008Z,35.29
2022-08-07T07:50:32.478Z,36.01
2022-08-07T07:51:59.570Z,35.74
2022-08-07T07:54:09.273Z,36.51
2022-08-07T07:56:19.197Z,38.45
2022-08-07T07:58:40.976Z,38.63
2022-08-07T08:00:54.831Z,36.74
2022-08-07T08:03:16.976Z,38.00
2022-08-07T08:05:55.035Z,38.54
2022-08-07T08:08:03.596Z,40.75
2022-08-07T08:10:14.882Z,42.09
2022-08-07T08:12:58.975Z,42.63
2022-08-07T08:15:09.355Z,43.36
2022-08-07T08:18:36.480Z,42.75
2022-08-07T08:20:18.026Z,42.66
2022-08-07T08:22:32.964Z,42.68
2022-08-07T08:25:18.210Z,43.12
2022-08-07T08:27:33.449Z,42.97
2022-08-07T08:29:55.512Z,42.17
2022-08-07T08:32:17.904Z,43.01
2022-08-07T08:34:29.186Z,41.99
2022-08-07T08:36:46.247Z,42.55
2022-08-07T08:39:03.230Z,43.54
2022-08-07T08:41:17.546Z,42.93
2022-08-07T08:43:42.388Z,43.10
2022-08-07T08:46:00.894Z,42.49
2022-08-07T08:48:18.688Z,42.25
2022-08-07T08:50:39.333Z,41.42
2022-08-07T08:52:54.669Z,41.73
2022-08-07T08:55:10.138Z,41.84
2022-08-07T08:57:37.914Z,40.72
2022-08-07T08:59:53.760Z,40.37
2022-08-07T09:02:13.977Z,39.51
2022-08-07T09:04:30.126Z,38.87
2022-08-07T09:06:55.273Z,37.97
2022-08-07T09:09:20.955Z,36.75
2022-08-07T09:11:53.246Z,36.93
2022-08-07T09:14:11.903Z,35.23
2022-08-07T09:16:30.486Z,34.19
2022-08-07T09:19:07.334Z,33.32
2022-08-07T09:22:22.456Z,32.04
2022-08-07T09:24:32.116Z,32.05
2022-08-07T09:26:57.041Z,31.45
2022-08-07T09:30:06.370Z,30.56
2022-08-07T09:31:53.938Z,31.29
2022-08-07T09:34:13.938Z,31.47
2022-08-07T09:36:36.899Z,31.92
2022-08-07T09:38:53.755Z,31.48
2022-08-07T09:41:10.655Z,29.61
2022-08-07T09:44:03.185Z,28.45
2022-08-07T09:47:51.687Z,28.85
2022-08-07T09:50:00.450Z,29.13
2022-08-07T09:52:10.296Z,28.67
2022-08-07T09:54:16.445Z,28.13
2022-08-07T09:57:01.987Z,28.76
2022-08-07T09:59:46.427Z,27.47
2022-08-07T10:02:24.240Z,26.97
2022-08-07T10:05:20.107Z,26.11
2022-08-07T10:08:05.824Z,28.64
2022-08-07T10:10:25.115Z,27.46
2022-08-07T10:12:56.470Z,27.49
2022-08-07T10:15:37.854Z,26.30
2022-08-07T10:18:11.944Z,25.87
2022-08-07T10:20:31.742Z,28.17
2022-08-07T10:23:02.135Z,27.33
2022-08-07T10:25:23.847Z,28.54
2022-08-07T10:28:14.312Z,28.18
2022-08-07T10:30:26.381Z,27.81
2022-08-07T10:32:59.823Z,27.58
2022-08-07T10:35:25.512Z,28.52
2022-08-07T10:38:00.410Z,28.64
2022-08-07T10:40:22.489Z,28.02
2022-08-07T10:42:45.664Z,28.56
2022-08-07T10:45:04.207Z,27.50
2022-08-07T10:47:27.075Z,27.55
2022-08-07T10:50:06.728Z,28.61
2022-08-07T10:52:31.890Z,28.64
2022-08-07T10:55:00.889Z,27.53
2022-08-07T10:57:34.747Z,28.53
2022-08-07T11:00:01.755Z,28.36
2022-08-07T11:02:33.597Z,28.37
2022-08-07T11:04:58.117Z,27.95
2022-08-07T11:07:15.100Z,28.30
2022-08-07T11:10:09.999Z,28.47
2022-08-07T11:12:18.862Z,29.71
2022-08-07T11:14:59.911Z,29.04
2022-08-07T11:17:23.223Z,29.25
2022-08-07T11:19:39.875Z,29.64
2022-08-07T11:22:26.477Z,30.22
2022-08-07T11:24:48.524Z,29.16
2022-08-07T11:27:21.529Z,29.14
2022-08-07T11:30:17.696Z,29.89
2022-08-07T11:32:32.390Z,28.60
2022-08-07T11:34:48.571Z,29.41
2022-08-07T11:37:11.587Z,29.39
2022-08-07T11:39:39.639Z,30.00
2022-08-07T11:42:16.914Z,29.60
2022-08-07T11:44:37.690Z,30.49
2022-08-07T11:47:01.700Z,29.75
2022-08-07T11:50:11.507Z,30.26
2022-08-07T11:52:29.455Z,30.22
2022-08-07T11:55:01.372Z,29.14
2022-08-07T11:57:19.318Z,31.24
2022-08-07T12:00:19.151Z,29.94
2022-08-07T12:02:38.901Z,31.07
2022-08-07T12:05:28.261Z,30.20
2022-08-07T12:07:53.788Z,29.69
2022-08-07T12:10:23.234Z,30.45
2022-08-07T12:12:38.402Z,29.20
2022-08-07T12:14:56.356Z,29.31
2022-08-07T12:17:20.278Z,29.84
2022-08-07T12:20:05.517Z,29.76
2022-08-07T12:26:21.496Z,28.93
2022-08-07T12:28:14.819Z,28.73
2022-08-07T12:30:28.910Z,29.05
2022-08-07T12:32:43.770Z,30.15
2022-08-07T12:34:55.943Z,29.25
2022-08-07T12:37:08.242Z,29.48
2022-08-07T12:39:42.251Z,30.76
2022-08-07T12:41:56.827Z,29.05
2022-08-07T12:44:17.173Z,29.14
2022-08-07T12:46:38.685Z,30.16
2022-08-07T12:49:00.269Z,30.33
2022-08-07T12:51:21.210Z,30.59
2022-08-07T12:54:23.928Z,30.71
2022-08-07T12:56:12.698Z,30.98
2022-08-07T12:58:35.487Z,30.40
2022-08-07T13:00:54.843Z,31.28
2022-08-07T13:03:56.349Z,31.51
2022-08-07T13:06:21.346Z,31.06
2022-08-07T13:08:43.416Z,31.72
2022-08-07T13:11:09.067Z,30.86
2022-08-07T13:13:46.874Z,30.90
2022-08-07T13:16:05.062Z,30.92
2022-08-07T13:18:28.343Z,31.17
2022-08-07T13:20:46.620Z,30.79
2022-08-07T13:24:00.178Z,30.60
2022-08-07T13:25:43.365Z,30.42
2022-08-07T13:28:13.897Z,30.65
2022-08-07T13:30:41.082Z,30.40
2022-08-07T13:32:57.966Z,29.93
2022-08-07T13:35:10.978Z,29.68
2022-08-07T13:37:26.785Z,28.85
2022-08-07T13:40:33.367Z,29.41
2022-08-07T13:42:18.901Z,29.56
2022-08-07T13:44:37.063Z,29.74
2022-08-07T13:46:56.849Z,30.25
2022-08-07T13:49:08.781Z,27.69
2022-08-07T13:52:05.067Z,28.76
2022-08-07T13:54:16.463Z,29.32
2022-08-07T13:56:35.942Z,28.85
2022-08-07T13:59:05.843Z,29.77
2022-08-07T14:01:22.330Z,28.74
2022-08-07T14:04:09.617Z,28.60
2022-08-07T14:06:06.388Z,28.37
2022-08-07T14:08:15.684Z,28.70
2022-08-07T14:10:28.186Z,29.07
2022-08-07T14:12:53.942Z,28.32
2022-08-07T14:15:08.869Z,29.23
2022-08-07T14:18:12.115Z,28.28
2022-08-07T14:20:42.284Z,28.23
2022-08-07T14:22:34.752Z,28.30
2022-08-07T14:24:45.351Z,29.34
2022-08-07T14:26:57.551Z,28.92
2022-08-07T14:30:04.902Z,28.31
2022-08-07T14:31:42.937Z,28.17
2022-08-07T14:34:07.297Z,29.58
2022-08-07T14:36:18.435Z,28.87
2022-08-07T14:38:31.373Z,29.54
2022-08-07T14:40:49.482Z,28.24
2022-08-07T14:45:46.302Z,28.22
2022-08-07T14:48:01.451Z,29.28
2022-08-07T14:50:19.074Z,29.13
2022-08-07T14:52:34.163Z,29.24
2022-08-07T14:54:45.044Z,29.57
2022-08-07T14:56:54.699Z,30.06
2022-08-07T14:59:13.708Z,29.60
2022-08-07T15:01:42.714Z,30.14
2022-08-07T15:04:05.781Z,29.65
2022-08-07T15:06:15.057Z,29.62
2022-08-07T15:11:02.850Z,29.51
2022-08-07T15:13:22.514Z,30.13
2022-08-07T15:15:38.970Z,29.42
2022-08-07T15:17:55.886Z,29.57
2022-08-07T15:20:30.984Z,30.21
2022-08-07T15:22:51.526Z,29.26
2022-08-07T15:25:17.111Z,29.06
2022-08-07T15:27:29.988Z,29.73
2022-08-07T15:30:04.835Z,29.38
2022-08-07T15:34:50.486Z,28.63
2022-08-07T15:37:06.571Z,29.96
2022-08-07T15:39:18.114Z,29.67
2022-08-07T15:42:43.392Z,29.66
2022-08-07T15:44:03.946Z,29.19
2022-08-07T15:49:03.720Z,30.29
2022-08-07T15:51:22.651Z,30.10
2022-08-07T15:53:54.063Z,30.33
2022-08-07T15:56:13.280Z,30.24
2022-08-07T15:58:35.877Z,30.35
2022-08-07T16:00:48.031Z,30.88
2022-08-07T16:03:01.014Z,30.27
2022-08-07T16:05:15.955Z,30.71
2022-08-07T16:08:30.942Z,29.55
2022-08-07T16:10:15.044Z,30.03
2022-08-07T16:12:33.471Z,30.05
2022-08-07T16:15:00.857Z,29.80
2022-08-07T16:18:02.086Z,31.22
2022-08-07T16:20:06.736Z,29.87
2022-08-07T16:22:38.438Z,30.17
2022-08-07T16:25:09.181Z,30.36
2022-08-07T16:27:40.681Z,30.57
2022-08-07T16:30:30.081Z,30.37
2022-08-07T16:32:57.460Z,30.63
2022-08-07T16:35:50.299Z,30.59
2022-08-07T16:38:14.526Z,30.96
2022-08-07T16:41:05.350Z,29.86
2022-08-07T16:44:05.913Z,29.89
2022-08-07T16:47:05.621Z,29.38
2022-08-07T16:50:20.424Z,29.73
2022-08-07T16:52:41.723Z,29.60
2022-08-07T16:54:54.261Z,30.43
2022-08-07T16:57:15.290Z,30.31
2022-08-07T16:59:46.820Z,30.01
2022-08-07T17:02:03.767Z,29.62
2022-08-07T17:04:24.468Z,30.06
2022-08-07T17:07:02.783Z,29.75
2022-08-07T17:10:06.938Z,30.17
2022-08-07T17:12:04.728Z,30.05
2022-08-07T17:14:22.025Z,30.03
2022-08-07T17:16:37.316Z,30.20
2022-08-07T17:19:04.839Z,29.71
2022-08-07T17:21:18.765Z,29.56
2022-08-07T17:23:43.389Z,29.85
2022-08-07T17:26:04.574Z,29.91
2022-08-07T17:28:38.149Z,29.20
2022-08-07T17:30:57.989Z,29.60
2022-08-07T17:34:09.854Z,29.98
2022-08-07T17:36:00.498Z,29.41
2022-08-07T17:38:32.236Z,31.01
2022-08-07T17:40:50.776Z,30.11
2022-08-07T17:43:17.903Z,29.37
2022-08-07T17:45:31.864Z,30.56
2022-08-07T17:47:54.386Z,30.11
2022-08-07T17:50:04.075Z,30.40
2022-08-07T17:52:30.726Z,30.15
2022-08-07T17:54:53.533Z,29.82
2022-08-07T17:57:18.951Z,29.77
2022-08-07T17:59:35.450Z,30.22
2022-08-07T18:01:50.554Z,29.37
2022-08-07T18:04:16.632Z,29.76
2022-08-07T18:06:38.674Z,30.58
2022-08-07T18:09:06.143Z,30.31
2022-08-07T18:12:08.021Z,29.76
2022-08-07T18:13:52.564Z,29.73
2022-08-07T18:16:10.673Z,29.57
2022-08-07T18:18:45.763Z,29.31
2022-08-07T18:21:38.249Z,29.60
2022-08-07T18:23:43.307Z,29.93
2022-08-07T18:26:15.214Z,30.31
2022-08-07T18:28:35.459Z,30.37
2022-08-07T18:30:55.135Z,30.50
2022-08-07T18:33:54.957Z,30.05
2022-08-07T18:36:17.060Z,30.90
2022-08-07T18:38:56.528Z,30.20
2022-08-07T18:41:20.903Z,30.10
2022-08-07T18:43:43.339Z,29.88
2022-08-07T18:46:25.119Z,30.18
2022-08-07T18:50:31.879Z,30.60
2022-08-07T18:52:40.933Z,30.30
2022-08-07T18:54:30.754Z,30.66
2022-08-07T18:56:58.392Z,30.79
2022-08-07T18:59:58.793Z,30.77
2022-08-07T19:02:34.472Z,30.79
2022-08-07T19:05:10.477Z,31.22
2022-08-07T19:07:35.582Z,31.05
2022-08-07T19:09:56.322Z,31.09
2022-08-07T19:12:19.230Z,30.80
2022-08-07T19:14:51.314Z,30.83
2022-08-07T19:17:08.580Z,31.38
2022-08-07T19:19:32.590Z,31.15
2022-08-07T19:21:56.256Z,31.67
2022-08-07T19:24:30.580Z,31.69
2022-08-07T19:27:16.897Z,31.84
2022-08-07T19:31:00.216Z,32.88
2022-08-07T19:32:07.780Z,32.32
2022-08-07T19:34:32.497Z,32.38
2022-08-07T19:36:51.893Z,32.23
2022-08-07T19:39:09.082Z,32.38
2022-08-07T19:41:44.950Z,32.54
2022-08-07T19:43:55.581Z,32.35
2022-08-07T19:46:11.600Z,32.15
2022-08-07T19:48:24.022Z,32.46
2022-08-07T19:50:45.373Z,32.16
2022-08-07T19:52:58.464Z,32.13
2022-08-07T19:55:10.951Z,32.41
2022-08-07T19:58:03.413Z,32.37
2022-08-07T19:59:52.511Z,32.37
2022-08-07T20:02:12.312Z,33.24
2022-08-07T20:04:31.623Z,33.33
2022-08-07T20:06:46.569Z,33.47
2022-08-07T20:08:58.445Z,33.54
2022-08-07T20:11:10.825Z,33.60
2022-08-07T20:13:26.875Z,33.71
2022-08-07T20:15:38.950Z,33.38
2022-08-07T20:18:01.402Z,33.08
2022-08-07T20:20:15.304Z,33.31
2022-08-07T20:22:34.438Z,33.63
2022-08-07T20:24:47.836Z,33.42
2022-08-07T20:26:58.069Z,33.85
2022-08-07T20:29:46.503Z,36.78
2022-08-07T20:31:39.619Z,36.06
2022-08-07T20:33:56.696Z,36.30
2022-08-07T20:36:09.079Z,37.85
2022-08-07T20:38:22.249Z,38.56
2022-08-07T20:40:35.028Z,38.44
2022-08-07T20:42:56.146Z,40.20
2022-08-07T20:45:32.541Z,38.36
2022-08-07T20:47:55.947Z,38.93
2022-08-07T20:50:12.411Z,38.19
2022-08-07T20:52:30.038Z,38.33
2022-08-07T20:54:53.371Z,37.26
2022-08-07T20:57:06.751Z,37.97
2022-08-07T21:00:05.642Z,38.89
2022-08-07T21:01:55.282Z,38.41
2022-08-07T21:04:21.950Z,40.26
2022-08-07T21:06:35.557Z,40.33
2022-08-07T21:08:47.502Z,39.14
2022-08-07T21:11:01.219Z,40.74
2022-08-07T21:13:17.356Z,41.41
2022-08-07T21:15:47.868Z,40.77
2022-08-07T21:18:20.618Z,40.14
2022-08-07T21:20:38.419Z,39.96
2022-08-07T21:22:53.502Z,41.87
2022-08-07T21:25:13.667Z,41.65
2022-08-07T21:27:40.157Z,40.55
2022-08-07T21:30:04.196Z,39.69
2022-08-07T21:32:46.969Z,40.84
2022-08-07T21:34:58.564Z,40.52
2022-08-07T21:37:13.400Z,41.89
2022-08-07T21:39:46.758Z,42.26
2022-08-07T21:42:14.926Z,41.37
2022-08-07T21:44:51.327Z,41.35
2022-08-07T21:47:12.145Z,41.71
2022-08-07T21:50:02.207Z,42.38
2022-08-07T21:52:13.048Z,44.20
2022-08-07T21:54:37.413Z,42.42
2022-08-07T21:56:57.760Z,42.76
2022-08-07T21:59:14.261Z,42.18
2022-08-07T22:02:06.153Z,42.15
2022-08-07T22:04:02.852Z,43.56
2022-08-07T22:06:28.806Z,43.39
2022-08-07T22:08:45.438Z,42.70
2022-08-07T22:11:02.711Z,43.00
2022-08-07T22:13:16.012Z,42.43
2022-08-07T22:16:42.993Z,42.26
2022-08-07T22:17:58.944Z,42.38
2022-08-07T22:20:23.527Z,42.57
2022-08-07T22:22:44.540Z,42.79
2022-08-07T22:25:02.943Z,43.88
2022-08-07T22:27:33.831Z,43.87
2022-08-07T22:29:55.381Z,44.76
2022-08-07T22:32:08.368Z,44.26
2022-08-07T22:34:29.219Z,44.97
2022-08-07T22:36:48.189Z,44.06
2022-08-07T22:39:05.761Z,45.50
2022-08-07T22:41:19.908Z,45.50
2022-08-07T22:43:39.016Z,45.33
2022-08-07T22:46:21.321Z,45.14
2022-08-07T22:48:56.025Z,46.58
2022-08-07T22:51:36.423Z,46.87
2022-08-07T22:54:07.736Z,48.49
2022-08-07T22:56:21.763Z,47.53
2022-08-07T22:58:58.027Z,47.92
2022-08-07T23:01:24.598Z,48.14
2022-08-07T23:03:57.624Z,50.01
2022-08-07T23:06:32.814Z,49.16
2022-08-07T23:10:04.947Z,50.47
2022-08-07T23:11:44.239Z,50.28
2022-08-07T23:14:22.776Z,50.21
2022-08-07T23:16:55.566Z,51.57
2022-08-07T23:19:38.894Z,50.47
2022-08-07T23:22:07.116Z,50.83
2022-08-07T23:24:45.349Z,51.83
2022-08-07T23:27:17.391Z,52.65
2022-08-07T23:30:38.439Z,53.21
2022-08-07T23:34:34.748Z,52.79
2022-08-07T23:35:37.399Z,53.15
2022-08-07T23:38:09.305Z,52.63
2022-08-07T23:40:32.640Z,52.50
2022-08-07T23:42:53.385Z,53.32
2022-08-07T23:46:01.824Z,53.90
2022-08-07T23:48:02.897Z,53.27
2022-08-07T23:50:29.673Z,52.63
2022-08-07T23:53:05.591Z,52.49
2022-08-07T23:55:46.979Z,51.79
2022-08-07T23:57:56.684Z,51.73
